Time;durP1;ratioP1;P1;durP2;ratioP2;P2;SDS_P1;SDS_P2;PMS_P1;PMS_P2;Temp;Humidity;BMP_temperature;BMP_pressure;BME280_temperature;BME280_humidity;BME280_pressure;Samples;Min_cycle;Max_cycle;Signal;HPM_P1;HPM_P2
2024/02/05 00:00:14;;;;;;;0.68;0.20;;;;;;;;;;5085694;28;20110;-75
2024/02/05 00:02:39;;;;;;;0.15;0.10;;;;;;;;;;5077610;28;20522;-75
2024/02/05 00:05:09;;;;;;;0.77;0.20;;;;;;;;;;5078879;28;20043;-75
2024/02/05 00:07:35;;;;;;;0.73;0.20;;;;;;;;;;5085450;28;20024;-75
2024/02/05 00:10:00;;;;;;;0.95;0.22;;;;;;;;;;5076846;28;20492;-75
2024/02/05 00:12:25;;;;;;;0.30;0.20;;;;;;;;;;5072879;28;20028;-75
2024/02/05 00:14:50;;;;;;;0.35;0.20;;;;;;;;;;5072665;28;20382;-75
2024/02/05 00:17:16;;;;;;;0.65;0.20;;;;;;;;;;5072753;28;20032;-75
2024/02/05 00:19:41;;;;;;;2.40;0.40;;;;;;;;;;5077964;28;20029;-75
2024/02/05 00:22:06;;;;;;;0.40;0.20;;;;;;;;;;5072710;28;20028;-75
2024/02/05 00:24:31;;;;;;;2.30;0.30;;;;;;;;;;5071733;28;20161;-75
2024/02/05 00:26:57;;;;;;;0.85;0.40;;;;;;;;;;5072653;28;20111;-75
2024/02/05 00:29:22;;;;;;;0.77;0.28;;;;;;;;;;5076389;28;20076;-75
2024/02/05 00:31:48;;;;;;;0.85;0.20;;;;;;;;;;5073472;28;20110;-75
2024/02/05 00:34:14;;;;;;;0.20;0.10;;;;;;;;;;5076392;28;20032;-75
2024/02/05 00:36:39;;;;;;;0.47;0.28;;;;;;;;;;5072373;28;20036;-75
2024/02/05 00:39:05;;;;;;;0.20;0.10;;;;;;;;;;5080909;28;20020;-75
2024/02/05 00:41:30;;;;;;;1.10;0.30;;;;;;;;;;5074597;28;20024;-75
2024/02/05 00:43:55;;;;;;;0.17;0.10;;;;;;;;;;5072000;28;20477;-75
2024/02/05 00:46:26;;;;;;;1.00;0.35;;;;;;;;;;5072279;28;20074;-75
2024/02/05 00:48:52;;;;;;;0.45;0.10;;;;;;;;;;5080057;28;20032;-75
2024/02/05 00:51:18;;;;;;;2.30;0.20;;;;;;;;;;5072768;28;20024;-75
2024/02/05 00:53:43;;;;;;;0.52;0.22;;;;;;;;;;5074795;28;20033;-75
2024/02/05 00:56:08;;;;;;;0.20;0.10;;;;;;;;;;5076035;28;20056;-77
2024/02/05 00:58:34;;;;;;;1.20;0.20;;;;;;;;;;5075665;28;20061;-76
2024/02/05 01:00:59;;;;;;;0.20;0.10;;;;;;;;;;5076145;28;20139;-76
2024/02/05 01:03:24;;;;;;;0.63;0.17;;;;;;;;;;5079485;28;20042;-76
2024/02/05 01:05:49;;;;;;;0.45;0.30;;;;;;;;;;5071775;28;20036;-76
2024/02/05 01:08:14;;;;;;;0.57;0.17;;;;;;;;;;5073904;28;20020;-76
2024/02/05 01:10:40;;;;;;;1.10;0.25;;;;;;;;;;5073023;28;20270;-76
2024/02/05 01:13:05;;;;;;;0.22;0.10;;;;;;;;;;5071717;28;20020;-77
2024/02/05 01:15:31;;;;;;;0.20;0.10;;;;;;;;;;5072334;28;20492;-77
2024/02/05 01:17:56;;;;;;;0.32;0.20;;;;;;;;;;5071612;28;20480;-77
2024/02/05 01:20:21;;;;;;;0.73;0.20;;;;;;;;;;5078024;28;20024;-77
2024/02/05 01:22:47;;;;;;;1.02;0.20;;;;;;;;;;5072249;28;20089;-77
2024/02/05 01:25:12;;;;;;;0.50;0.20;;;;;;;;;;5071201;28;20051;-77
2024/02/05 01:27:38;;;;;;;0.77;0.20;;;;;;;;;;5071232;28;20451;-77
2024/02/05 01:30:04;;;;;;;0.30;0.10;;;;;;;;;;5073962;28;20031;-77
2024/02/05 01:32:29;;;;;;;0.10;0.10;;;;;;;;;;5080483;28;20055;-76
2024/02/05 01:34:54;;;;;;;1.27;0.10;;;;;;;;;;5071024;28;20493;-76
2024/02/05 01:37:19;;;;;;;0.13;0.10;;;;;;;;;;5071668;28;20028;-76
2024/02/05 01:39:44;;;;;;;1.48;0.10;;;;;;;;;;5073798;28;20059;-76
2024/02/05 01:42:09;;;;;;;0.10;0.10;;;;;;;;;;5071110;28;20044;-76
2024/02/05 01:44:35;;;;;;;0.13;0.10;;;;;;;;;;5070626;28;20086;-76
2024/02/05 01:47:01;;;;;;;0.43;0.13;;;;;;;;;;5074344;28;20016;-76
2024/02/05 01:49:26;;;;;;;0.70;0.17;;;;;;;;;;5077749;28;20027;-76
2024/02/05 01:51:53;;;;;;;0.50;0.13;;;;;;;;;;5071288;28;20087;-76
2024/02/05 01:54:19;;;;;;;0.60;0.10;;;;;;;;;;5070455;28;20385;-76
2024/02/05 01:56:44;;;;;;;0.00;0.00;;;;;;;;;;5076148;28;20112;-77
2024/02/05 01:59:10;;;;;;;1.00;0.10;;;;;;;;;;5073787;28;20040;-77
2024/02/05 02:01:37;;;;;;;2.03;0.13;;;;;;;;;;5068945;28;20436;-76
2024/02/05 02:04:03;;;;;;;0.38;0.20;;;;;;;;;;5076935;28;20425;-76
2024/02/05 02:06:28;;;;;;;0.80;0.20;;;;;;;;;;5070629;28;20061;-77
2024/02/05 02:08:55;;;;;;;0.50;0.13;;;;;;;;;;5073378;28;20037;-77
2024/02/05 02:11:20;;;;;;;0.25;0.10;;;;;;;;;;5070316;28;20111;-76
2024/02/05 02:13:45;;;;;;;1.35;0.10;;;;;;;;;;5077568;28;20814;-77
2024/02/05 02:16:13;;;;;;;0.00;0.00;;;;;;;;;;5070651;28;20037;-77
2024/02/05 02:18:39;;;;;;;1.27;0.10;;;;;;;;;;5072950;28;20075;-76
2024/02/05 02:21:06;;;;;;;0.20;0.00;;;;;;;;;;5070135;28;20031;-76
2024/02/05 02:23:33;;;;;;;0.68;0.20;;;;;;;;;;5069904;28;20064;-77
2024/02/05 02:25:59;;;;;;;0.10;0.10;;;;;;;;;;5075891;28;20071;-77
2024/02/05 02:28:24;;;;;;;0.17;0.10;;;;;;;;;;5073342;28;20060;-77
2024/02/05 02:30:51;;;;;;;0.40;0.10;;;;;;;;;;5070373;28;20558;-76
2024/02/05 02:33:16;;;;;;;0.35;0.10;;;;;;;;;;5081975;28;20040;-77
2024/02/05 02:35:53;;;;;;;0.30;0.10;;;;;;;;;;5073315;28;20214;-77
2024/02/05 02:38:26;;;;;;;0.77;0.17;;;;;;;;;;5073111;28;20277;-77
2024/02/05 02:40:55;;;;;;;0.90;0.10;;;;;;;;;;5071526;28;20389;-77
2024/02/05 02:43:21;;;;;;;0.95;0.15;;;;;;;;;;5069469;28;20021;-77
2024/02/05 02:45:48;;;;;;;1.10;0.20;;;;;;;;;;5070236;28;20130;-77
2024/02/05 02:48:13;;;;;;;0.35;0.13;;;;;;;;;;5070173;28;20032;-77
2024/02/05 02:50:38;;;;;;;1.17;0.30;;;;;;;;;;5071705;28;20020;-78
2024/02/05 02:53:04;;;;;;;0.55;0.25;;;;;;;;;;5069934;28;20434;-77
2024/02/05 02:55:29;;;;;;;1.38;0.20;;;;;;;;;;5069856;28;20412;-77
2024/02/05 02:57:55;;;;;;;2.00;0.20;;;;;;;;;;5070202;28;20078;-76
2024/02/05 03:00:20;;;;;;;0.85;0.10;;;;;;;;;;5074139;28;20523;-77
2024/02/05 03:02:45;;;;;;;0.28;0.20;;;;;;;;;;5075180;28;20040;-77
2024/02/05 03:05:10;;;;;;;0.98;0.30;;;;;;;;;;5075939;28;20024;-76
2024/02/05 03:07:36;;;;;;;0.75;0.15;;;;;;;;;;5070266;28;20051;-77
2024/02/05 03:10:03;;;;;;;0.52;0.10;;;;;;;;;;5071893;28;20017;-78
2024/02/05 03:12:28;;;;;;;0.30;0.10;;;;;;;;;;5070028;28;20060;-78
2024/02/05 03:14:53;;;;;;;0.30;0.20;;;;;;;;;;5069570;28;20056;-78
2024/02/05 03:17:18;;;;;;;0.22;0.10;;;;;;;;;;5069854;28;20028;-78
2024/02/05 03:19:43;;;;;;;0.22;0.10;;;;;;;;;;5071097;28;20501;-78
2024/02/05 03:22:09;;;;;;;1.07;0.10;;;;;;;;;;5069983;28;20057;-78
2024/02/05 03:24:34;;;;;;;0.50;0.20;;;;;;;;;;5070157;28;20294;-77
2024/02/05 03:26:59;;;;;;;1.02;0.40;;;;;;;;;;5071591;28;20039;-78
2024/02/05 03:29:24;;;;;;;0.73;0.10;;;;;;;;;;5071131;28;20053;-78
2024/02/05 03:31:49;;;;;;;1.05;0.10;;;;;;;;;;5073655;28;20039;-78
2024/02/05 03:34:16;;;;;;;0.22;0.13;;;;;;;;;;5072799;28;20025;-77
2024/02/05 03:36:42;;;;;;;0.10;0.10;;;;;;;;;;5069425;28;20035;-78
2024/02/05 03:39:09;;;;;;;0.15;0.10;;;;;;;;;;5071359;28;20044;-79
2024/02/05 03:41:34;;;;;;;0.10;0.10;;;;;;;;;;5068205;28;20021;-78
2024/02/05 03:43:59;;;;;;;0.50;0.10;;;;;;;;;;5069380;28;20013;-78
2024/02/05 03:46:24;;;;;;;1.92;0.20;;;;;;;;;;5069631;28;20035;-77
2024/02/05 03:48:55;;;;;;;0.10;0.10;;;;;;;;;;5070657;28;20033;-76
2024/02/05 03:51:20;;;;;;;0.52;0.22;;;;;;;;;;5069188;28;20017;-77
2024/02/05 03:53:46;;;;;;;0.20;0.10;;;;;;;;;;5071284;28;20032;-77
2024/02/05 03:56:14;;;;;;;0.22;0.20;;;;;;;;;;5073148;28;20101;-77
2024/02/05 03:58:39;;;;;;;0.20;0.20;;;;;;;;;;5074338;28;20115;-77
2024/02/05 04:01:05;;;;;;;0.75;0.20;;;;;;;;;;5077917;28;20111;-77
2024/02/05 04:03:30;;;;;;;0.40;0.28;;;;;;;;;;5080773;28;20029;-77
2024/02/05 04:05:57;;;;;;;0.50;0.20;;;;;;;;;;5082005;28;20020;-77
2024/02/05 04:08:22;;;;;;;0.30;0.10;;;;;;;;;;5078964;28;20040;-78
2024/02/05 04:10:47;;;;;;;0.85;0.30;;;;;;;;;;5082434;28;20032;-77
2024/02/05 04:13:12;;;;;;;1.50;0.43;;;;;;;;;;5074664;28;20032;-77
2024/02/05 04:15:37;;;;;;;0.65;0.20;;;;;;;;;;5073802;28;20068;-78
2024/02/05 04:18:03;;;;;;;0.95;0.30;;;;;;;;;;5087586;28;20031;-77
2024/02/05 04:20:28;;;;;;;0.73;0.17;;;;;;;;;;5083549;28;20024;-77
2024/02/05 04:22:53;;;;;;;0.32;0.10;;;;;;;;;;5088101;28;20093;-77
2024/02/05 04:25:18;;;;;;;0.82;0.20;;;;;;;;;;5091237;28;20039;-77
2024/02/05 04:27:43;;;;;;;1.27;0.25;;;;;;;;;;5088363;28;20098;-77
2024/02/05 04:30:10;;;;;;;0.70;0.20;;;;;;;;;;5089157;28;20024;-77
2024/02/05 04:32:35;;;;;;;1.15;0.10;;;;;;;;;;5085630;28;20276;-78
2024/02/05 04:35:01;;;;;;;1.73;0.30;;;;;;;;;;5085455;28;20032;-78
2024/02/05 04:37:26;;;;;;;1.10;0.28;;;;;;;;;;5088345;28;20036;-78
2024/02/05 04:39:52;;;;;;;0.38;0.28;;;;;;;;;;5090219;28;20043;-78
2024/02/05 04:42:17;;;;;;;0.45;0.30;;;;;;;;;;5089455;28;20082;-77
2024/02/05 04:44:43;;;;;;;1.20;0.30;;;;;;;;;;5085394;28;20032;-79
2024/02/05 04:47:08;;;;;;;0.20;0.20;;;;;;;;;;5086197;28;20039;-78
2024/02/05 04:49:34;;;;;;;0.47;0.20;;;;;;;;;;5080288;28;20095;-78
2024/02/05 04:52:00;;;;;;;0.60;0.40;;;;;;;;;;5091394;28;20480;-77
2024/02/05 04:54:25;;;;;;;0.98;0.30;;;;;;;;;;5089263;28;20024;-78
2024/02/05 04:56:50;;;;;;;1.55;0.25;;;;;;;;;;5085653;28;20404;-77
2024/02/05 04:59:15;;;;;;;1.17;0.28;;;;;;;;;;5079925;28;20024;-78
2024/02/05 05:01:40;;;;;;;0.45;0.30;;;;;;;;;;5078849;28;20107;-77
2024/02/05 05:04:06;;;;;;;0.63;0.30;;;;;;;;;;5087501;28;20020;-77
2024/02/05 05:06:31;;;;;;;0.60;0.40;;;;;;;;;;5089704;28;20035;-77
2024/02/05 05:08:56;;;;;;;0.52;0.45;;;;;;;;;;5080528;28;20027;-77
2024/02/05 05:11:24;;;;;;;0.70;0.47;;;;;;;;;;5079686;28;20027;-77
2024/02/05 05:13:49;;;;;;;1.15;0.60;;;;;;;;;;5087376;28;20285;-77
2024/02/05 05:16:16;;;;;;;0.93;0.40;;;;;;;;;;5083722;28;20115;-78
2024/02/05 05:18:41;;;;;;;1.48;0.45;;;;;;;;;;5080266;28;20037;-77
2024/02/05 05:21:06;;;;;;;3.78;0.50;;;;;;;;;;5085761;28;20024;-77
2024/02/05 05:23:31;;;;;;;1.13;0.70;;;;;;;;;;5086512;28;20503;-78
2024/02/05 05:25:56;;;;;;;4.90;2.22;;;;;;;;;;5086356;28;20286;-77
2024/02/05 05:28:21;;;;;;;1.77;0.88;;;;;;;;;;5084065;28;20508;-78
2024/02/05 05:30:47;;;;;;;0.70;0.50;;;;;;;;;;5078471;28;20489;-77
2024/02/05 05:33:12;;;;;;;2.47;0.60;;;;;;;;;;5086836;28;20127;-78
2024/02/05 05:35:37;;;;;;;1.90;0.80;;;;;;;;;;5086400;28;20030;-78
2024/02/05 05:38:02;;;;;;;1.77;0.80;;;;;;;;;;5089161;28;20047;-78
2024/02/05 05:40:28;;;;;;;2.13;0.73;;;;;;;;;;5083555;28;20116;-77
2024/02/05 05:42:54;;;;;;;2.70;1.17;;;;;;;;;;5086592;28;20085;-78
2024/02/05 05:45:19;;;;;;;2.10;0.82;;;;;;;;;;5087482;28;20100;-77
2024/02/05 05:47:44;;;;;;;2.47;0.90;;;;;;;;;;5089352;28;20107;-78
2024/02/05 05:50:10;;;;;;;1.73;1.00;;;;;;;;;;5086049;28;20111;-78
2024/02/05 05:52:36;;;;;;;2.63;1.30;;;;;;;;;;5084450;28;20024;-78
2024/02/05 05:55:01;;;;;;;2.58;0.70;;;;;;;;;;5077021;28;20527;-78
2024/02/05 05:57:27;;;;;;;2.25;0.95;;;;;;;;;;5075669;28;20482;-79
2024/02/05 05:59:52;;;;;;;2.10;0.88;;;;;;;;;;5084703;28;20043;-78
2024/02/05 06:02:18;;;;;;;2.85;1.10;;;;;;;;;;5081494;28;20024;-78
2024/02/05 06:04:43;;;;;;;1.42;0.70;;;;;;;;;;5077493;28;20036;-78
2024/02/05 06:07:08;;;;;;;2.13;1.00;;;;;;;;;;5075066;28;20028;-79
2024/02/05 06:09:34;;;;;;;2.08;0.80;;;;;;;;;;5074543;28;20267;-79
2024/02/05 06:11:59;;;;;;;3.13;1.08;;;;;;;;;;5083491;28;20020;-79
2024/02/05 06:14:25;;;;;;;1.15;0.65;;;;;;;;;;5082576;28;20110;-78
2024/02/05 06:16:50;;;;;;;1.98;0.73;;;;;;;;;;5088362;28;20028;-79
2024/02/05 06:19:15;;;;;;;6.15;2.08;;;;;;;;;;5087617;28;20035;-78
2024/02/05 06:21:41;;;;;;;1.02;0.63;;;;;;;;;;5082227;28;20029;-79
2024/02/05 06:24:06;;;;;;;2.58;1.38;;;;;;;;;;5084434;28;20107;-79
2024/02/05 06:26:31;;;;;;;1.27;0.82;;;;;;;;;;5079564;28;20111;-78
2024/02/05 06:28:56;;;;;;;1.55;0.90;;;;;;;;;;5085787;28;20052;-79
2024/02/05 06:31:21;;;;;;;1.67;0.90;;;;;;;;;;5088324;28;20020;-79
2024/02/05 06:33:47;;;;;;;4.07;1.30;;;;;;;;;;5084639;28;20040;-79
2024/02/05 06:36:13;;;;;;;2.20;1.00;;;;;;;;;;5081606;28;20020;-78
2024/02/05 06:38:39;;;;;;;3.30;0.85;;;;;;;;;;5078501;28;20036;-79
2024/02/05 06:41:04;;;;;;;2.05;0.95;;;;;;;;;;5079007;28;20032;-77
2024/02/05 06:43:29;;;;;;;2.63;0.90;;;;;;;;;;5076824;28;20036;-78
2024/02/05 06:45:54;;;;;;;2.60;0.98;;;;;;;;;;5081982;28;20059;-78
2024/02/05 06:48:21;;;;;;;2.37;1.10;;;;;;;;;;5075106;28;20445;-79
2024/02/05 06:50:47;;;;;;;2.70;1.02;;;;;;;;;;5082656;28;20370;-79
2024/02/05 06:53:12;;;;;;;1.83;1.02;;;;;;;;;;5075487;28;20100;-79
2024/02/05 06:55:37;;;;;;;1.60;1.02;;;;;;;;;;5078753;28;20046;-78
2024/02/05 06:58:03;;;;;;;2.92;1.33;;;;;;;;;;5088840;28;20036;-78
2024/02/05 07:00:28;;;;;;;2.85;1.40;;;;;;;;;;5085703;28;20127;-78
2024/02/05 07:02:53;;;;;;;2.85;1.42;;;;;;;;;;5076878;28;20083;-78
2024/02/05 07:05:20;;;;;;;5.95;1.48;;;;;;;;;;5077403;28;20067;-79
2024/02/05 07:07:45;;;;;;;4.28;1.10;;;;;;;;;;5079386;28;20063;-79
2024/02/05 07:10:10;;;;;;;2.33;1.13;;;;;;;;;;5086213;28;20028;-79
2024/02/05 07:12:36;;;;;;;1.58;0.80;;;;;;;;;;5087739;28;20405;-79
2024/02/05 07:15:01;;;;;;;2.70;1.20;;;;;;;;;;5077112;28;20416;-79
2024/02/05 07:17:30;;;;;;;2.00;0.93;;;;;;;;;;5077345;28;20107;-78
2024/02/05 07:19:58;;;;;;;1.85;0.70;;;;;;;;;;5085930;28;20020;-78
2024/02/05 07:22:23;;;;;;;1.40;0.70;;;;;;;;;;5075008;28;20043;-78
2024/02/05 07:24:48;;;;;;;2.15;0.70;;;;;;;;;;5087228;28;20044;-78
2024/02/05 07:27:13;;;;;;;4.03;0.73;;;;;;;;;;5087730;28;20058;-78
2024/02/05 07:29:42;;;;;;;1.50;0.70;;;;;;;;;;5087864;28;20056;-78
2024/02/05 07:32:07;;;;;;;1.48;0.80;;;;;;;;;;5088885;28;20026;-78
2024/02/05 07:34:32;;;;;;;1.95;0.70;;;;;;;;;;5083863;28;20111;-78
2024/02/05 07:36:57;;;;;;;2.22;1.00;;;;;;;;;;5084384;28;20020;-78
2024/02/05 07:39:22;;;;;;;2.92;1.23;;;;;;;;;;5092876;28;20016;-79
2024/02/05 07:41:47;;;;;;;4.05;0.88;;;;;;;;;;5090773;28;20518;-79
2024/02/05 07:44:13;;;;;;;2.50;1.10;;;;;;;;;;5089381;28;20459;-79
2024/02/05 07:46:38;;;;;;;3.28;1.08;;;;;;;;;;5085311;28;20441;-78
2024/02/05 07:49:03;;;;;;;4.05;1.67;;;;;;;;;;5086776;28;20068;-78
2024/02/05 07:51:28;;;;;;;4.90;1.63;;;;;;;;;;5089279;28;20378;-78
2024/02/05 07:53:54;;;;;;;3.22;1.40;;;;;;;;;;5091195;28;20124;-79
2024/02/05 07:56:19;;;;;;;5.75;1.63;;;;;;;;;;5090619;28;20111;-78
2024/02/05 07:58:44;;;;;;;4.95;2.13;;;;;;;;;;5086916;28;20036;-78
2024/02/05 08:01:10;;;;;;;4.55;1.80;;;;;;;;;;5088746;28;20419;-79
2024/02/05 08:03:35;;;;;;;4.95;1.70;;;;;;;;;;5085652;28;20031;-79
2024/02/05 08:06:03;;;;;;;6.90;2.42;;;;;;;;;;5088897;28;20092;-78
2024/02/05 08:08:28;;;;;;;6.65;2.67;;;;;;;;;;5088338;28;20100;-79
2024/02/05 08:10:53;;;;;;;6.18;3.60;;;;;;;;;;5088611;28;20025;-79
2024/02/05 08:13:18;;;;;;;5.25;2.00;;;;;;;;;;5087703;28;20034;-78
2024/02/05 08:15:43;;;;;;;5.60;2.22;;;;;;;;;;5083392;28;20041;-79
2024/02/05 08:18:09;;;;;;;7.57;2.70;;;;;;;;;;5085107;28;20036;-79
2024/02/05 08:20:34;;;;;;;7.28;2.55;;;;;;;;;;5087903;28;20280;-78
2024/02/05 08:22:59;;;;;;;7.50;2.22;;;;;;;;;;5090362;28;20036;-79
2024/02/05 08:25:25;;;;;;;7.95;2.22;;;;;;;;;;5088485;28;20028;-79
2024/02/05 08:27:51;;;;;;;7.82;2.50;;;;;;;;;;5084887;28;20439;-78
2024/02/05 08:30:16;;;;;;;6.38;2.20;;;;;;;;;;5088204;28;20077;-79
2024/02/05 08:32:41;;;;;;;6.43;2.47;;;;;;;;;;5085728;28;20073;-79
2024/02/05 08:35:07;;;;;;;7.57;2.40;;;;;;;;;;5091262;28;20032;-78
2024/02/05 08:37:32;;;;;;;8.93;2.55;;;;;;;;;;5088413;28;20154;-78
2024/02/05 08:39:57;;;;;;;5.93;2.15;;;;;;;;;;5081747;28;20024;-78
2024/02/05 08:42:22;;;;;;;6.55;2.67;;;;;;;;;;5076504;28;20032;-79
2024/02/05 08:44:47;;;;;;;8.05;2.72;;;;;;;;;;5078894;28;20040;-78
2024/02/05 08:47:15;;;;;;;13.00;3.17;;;;;;;;;;5084690;28;20023;-79
2024/02/05 08:49:41;;;;;;;6.50;2.28;;;;;;;;;;5089471;28;20396;-77
2024/02/05 08:52:06;;;;;;;10.80;2.40;;;;;;;;;;5089447;28;20032;-77
2024/02/05 08:54:35;;;;;;;7.65;2.30;;;;;;;;;;5085837;28;20020;-76
2024/02/05 08:57:01;;;;;;;8.60;2.58;;;;;;;;;;5086305;28;20038;-77
2024/02/05 08:59:27;;;;;;;5.15;2.55;;;;;;;;;;5083380;28;20400;-77
2024/02/05 09:01:52;;;;;;;9.18;2.22;;;;;;;;;;5086016;28;20429;-76
2024/02/05 09:04:17;;;;;;;9.55;1.92;;;;;;;;;;5090429;28;20062;-77
2024/02/05 09:06:42;;;;;;;8.50;2.55;;;;;;;;;;5086857;28;20036;-77
2024/02/05 09:09:09;;;;;;;10.25;2.65;;;;;;;;;;5087218;28;20103;-77
2024/02/05 09:11:34;;;;;;;9.50;3.03;;;;;;;;;;5084034;28;20487;-77
2024/02/05 09:14:00;;;;;;;12.70;2.80;;;;;;;;;;5083553;28;20024;-77
2024/02/05 09:16:25;;;;;;;6.38;2.63;;;;;;;;;;5091154;28;20032;-77
2024/02/05 09:18:50;;;;;;;12.27;3.10;;;;;;;;;;5082714;28;20032;-77
2024/02/05 09:21:15;;;;;;;8.00;2.60;;;;;;;;;;5077354;28;20786;-77
2024/02/05 09:23:40;;;;;;;11.50;3.08;;;;;;;;;;5074526;28;20028;-77
2024/02/05 09:26:05;;;;;;;11.57;3.30;;;;;;;;;;5078895;28;20054;-77
2024/02/05 09:28:31;;;;;;;12.10;2.80;;;;;;;;;;5077084;28;20081;-77
2024/02/05 09:30:56;;;;;;;9.52;2.80;;;;;;;;;;5082305;28;20278;-77
2024/02/05 09:33:21;;;;;;;9.95;2.50;;;;;;;;;;5084366;28;20028;-77
2024/02/05 09:35:46;;;;;;;13.68;3.17;;;;;;;;;;5085193;28;20029;-77
2024/02/05 09:38:12;;;;;;;15.20;3.30;;;;;;;;;;5082344;28;20769;-77
2024/02/05 09:40:37;;;;;;;11.88;3.10;;;;;;;;;;5083141;28;20293;-77
2024/02/05 09:43:03;;;;;;;10.60;2.35;;;;;;;;;;5084947;28;20043;-77
2024/02/05 09:45:29;;;;;;;11.05;2.88;;;;;;;;;;5078298;28;20044;-77
2024/02/05 09:47:55;;;;;;;11.10;2.90;;;;;;;;;;5078770;28;20469;-77
2024/02/05 09:50:21;;;;;;;14.18;3.00;;;;;;;;;;5089283;28;20024;-77
2024/02/05 09:52:47;;;;;;;14.05;3.00;;;;;;;;;;5082600;28;20035;-77
2024/02/05 09:55:13;;;;;;;13.32;3.13;;;;;;;;;;5082606;28;20077;-77
2024/02/05 09:57:39;;;;;;;11.88;3.00;;;;;;;;;;5086754;28;20044;-77
2024/02/05 10:00:05;;;;;;;11.52;3.38;;;;;;;;;;5089719;28;20093;-76
2024/02/05 10:02:32;;;;;;;12.68;4.30;;;;;;;;;;5087660;28;20026;-77
2024/02/05 10:04:59;;;;;;;8.52;3.28;;;;;;;;;;5084775;28;20484;-77
2024/02/05 10:07:26;;;;;;;12.77;3.90;;;;;;;;;;5082879;28;20111;-77
2024/02/05 10:09:51;;;;;;;11.43;3.35;;;;;;;;;;5083674;28;20039;-77
2024/02/05 10:12:17;;;;;;;14.07;3.13;;;;;;;;;;5090018;28;20032;-77
2024/02/05 10:14:43;;;;;;;12.02;3.58;;;;;;;;;;5086522;28;20111;-77
2024/02/05 10:17:08;;;;;;;12.98;3.22;;;;;;;;;;5086978;28;20032;-77
2024/02/05 10:19:34;;;;;;;9.43;3.33;;;;;;;;;;5085093;28;20048;-77
2024/02/05 10:22:00;;;;;;;13.52;3.10;;;;;;;;;;5083809;28;20039;-77
2024/02/05 10:24:25;;;;;;;14.57;3.97;;;;;;;;;;5082007;28;20035;-77
2024/02/05 10:26:50;;;;;;;13.88;3.08;;;;;;;;;;5082084;28;20507;-76
2024/02/05 10:29:16;;;;;;;15.52;3.60;;;;;;;;;;5077904;28;20062;-76
2024/02/05 10:31:50;;;;;;;12.93;3.40;;;;;;;;;;5081331;28;20032;-77
2024/02/05 10:34:16;;;;;;;14.57;2.83;;;;;;;;;;5081238;28;20028;-77
2024/02/05 10:36:42;;;;;;;11.57;3.50;;;;;;;;;;5083000;28;20511;-76
2024/02/05 10:39:07;;;;;;;14.00;3.70;;;;;;;;;;5080852;28;20111;-76
2024/02/05 10:41:32;;;;;;;19.60;3.97;;;;;;;;;;5084407;28;20020;-76
2024/02/05 10:43:57;;;;;;;13.30;3.53;;;;;;;;;;5085516;28;20499;-76
2024/02/05 10:46:29;;;;;;;15.77;4.15;;;;;;;;;;5085158;28;20055;-76
2024/02/05 10:48:55;;;;;;;20.58;3.90;;;;;;;;;;5089219;28;20029;-76
2024/02/05 10:51:20;;;;;;;18.70;4.53;;;;;;;;;;5088738;28;20108;-76
2024/02/05 10:53:46;;;;;;;12.13;3.42;;;;;;;;;;5086620;28;20056;-76
2024/02/05 10:56:14;;;;;;;13.18;4.00;;;;;;;;;;5088078;28;20047;-76
2024/02/05 10:58:41;;;;;;;16.08;4.28;;;;;;;;;;5084510;28;20043;-77
2024/02/05 11:01:07;;;;;;;12.00;3.63;;;;;;;;;;5085715;28;20059;-76
2024/02/05 11:03:37;;;;;;;13.25;3.53;;;;;;;;;;5079497;28;20511;-76
2024/02/05 11:06:03;;;;;;;15.32;4.28;;;;;;;;;;5073810;28;20031;-76
2024/02/05 11:08:31;;;;;;;14.88;4.15;;;;;;;;;;5084689;28;20545;-76
2024/02/05 11:10:59;;;;;;;18.42;4.13;;;;;;;;;;5086925;28;20373;-76
2024/02/05 11:13:29;;;;;;;15.88;4.05;;;;;;;;;;5083491;28;20530;-76
2024/02/05 11:15:54;;;;;;;13.75;3.53;;;;;;;;;;5082780;28;20040;-76
2024/02/05 11:18:25;;;;;;;12.07;3.67;;;;;;;;;;5081656;28;20073;-76
2024/02/05 11:20:51;;;;;;;16.50;4.32;;;;;;;;;;5086062;28;20034;-76
2024/02/05 11:23:17;;;;;;;13.93;4.15;;;;;;;;;;5083031;28;20031;-77
2024/02/05 11:25:43;;;;;;;14.65;4.60;;;;;;;;;;5076460;28;20028;-76
2024/02/05 11:28:12;;;;;;;12.57;3.80;;;;;;;;;;5074336;28;20920;-76
2024/02/05 11:30:41;;;;;;;19.20;4.65;;;;;;;;;;5078201;28;20025;-76
2024/02/05 11:33:06;;;;;;;21.98;5.13;;;;;;;;;;5087283;28;20023;-76
2024/02/05 11:35:32;;;;;;;13.13;3.92;;;;;;;;;;5084029;28;20496;-75
2024/02/05 11:38:10;;;;;;;14.63;3.83;;;;;;;;;;5084825;28;20040;-77
2024/02/05 11:40:37;;;;;;;15.30;3.80;;;;;;;;;;5085140;28;20670;-76
2024/02/05 11:43:06;;;;;;;18.00;3.72;;;;;;;;;;5085377;28;20040;-76
2024/02/05 11:45:32;;;;;;;16.95;4.15;;;;;;;;;;5080966;28;20035;-76
2024/02/05 11:47:59;;;;;;;10.63;2.97;;;;;;;;;;5076639;28;20408;-77
2024/02/05 11:50:24;;;;;;;14.23;3.72;;;;;;;;;;5084585;28;20117;-77
2024/02/05 11:52:49;;;;;;;13.98;4.15;;;;;;;;;;5085017;28;20495;-77
2024/02/05 11:55:15;;;;;;;12.40;4.45;;;;;;;;;;5085204;28;20076;-77
2024/02/05 11:57:40;;;;;;;14.40;3.90;;;;;;;;;;5080993;28;20032;-76
2024/02/05 12:00:06;;;;;;;16.17;4.45;;;;;;;;;;5085301;28;20043;-76
2024/02/05 12:02:31;;;;;;;17.52;4.28;;;;;;;;;;5085291;28;20050;-77
2024/02/05 12:04:58;;;;;;;14.07;3.95;;;;;;;;;;5086297;28;20063;-76
2024/02/05 12:07:24;;;;;;;12.95;4.20;;;;;;;;;;5087191;28;20024;-77
2024/02/05 12:09:51;;;;;;;16.33;4.40;;;;;;;;;;5085629;28;20028;-76
2024/02/05 12:12:16;;;;;;;16.15;4.20;;;;;;;;;;5083388;28;20390;-76
2024/02/05 12:14:41;;;;;;;16.73;4.18;;;;;;;;;;5080042;28;20100;-76
2024/02/05 12:17:10;;;;;;;15.43;4.43;;;;;;;;;;5084025;28;20529;-76
2024/02/05 12:19:35;;;;;;;21.20;4.07;;;;;;;;;;5083104;28;20316;-77
2024/02/05 12:22:01;;;;;;;15.13;3.50;;;;;;;;;;5088990;28;20052;-77
2024/02/05 12:24:26;;;;;;;11.63;3.33;;;;;;;;;;5086426;28;20258;-77
2024/02/05 12:26:51;;;;;;;11.00;3.60;;;;;;;;;;5084145;28;20509;-77
2024/02/05 12:29:23;;;;;;;15.13;2.90;;;;;;;;;;5085087;28;20020;-77
2024/02/05 12:31:48;;;;;;;;;;;;;;;;;;5088735;28;20040;-77
2024/02/05 12:34:14;;;;;;;12.93;3.75;;;;;;;;;;5089481;28;19908;-77
2024/02/05 12:36:40;;;;;;;11.53;2.80;;;;;;;;;;5084091;28;20097;-77
2024/02/05 12:39:05;;;;;;;16.95;4.22;;;;;;;;;;5082043;28;20270;-77
2024/02/05 12:41:30;;;;;;;14.50;3.47;;;;;;;;;;5078864;28;20028;-77
2024/02/05 12:43:56;;;;;;;14.40;3.05;;;;;;;;;;5079681;28;20040;-77
2024/02/05 12:46:21;;;;;;;12.48;2.92;;;;;;;;;;5086768;28;20028;-77
2024/02/05 12:48:46;;;;;;;11.52;3.10;;;;;;;;;;5081200;28;20128;-77
2024/02/05 12:51:11;;;;;;;12.30;2.80;;;;;;;;;;5081701;28;20051;-77
2024/02/05 12:53:39;;;;;;;11.60;2.92;;;;;;;;;;5083409;28;20396;-77
2024/02/05 12:56:04;;;;;;;17.15;4.00;;;;;;;;;;5083264;28;20508;-77
2024/02/05 12:58:29;;;;;;;10.57;2.95;;;;;;;;;;5083968;28;20029;-77
2024/02/05 13:00:55;;;;;;;11.17;3.10;;;;;;;;;;5086957;28;20590;-77
2024/02/05 13:03:20;;;;;;;12.65;3.33;;;;;;;;;;5084331;28;20270;-77
2024/02/05 13:05:47;;;;;;;14.63;3.17;;;;;;;;;;5084270;28;20504;-77
2024/02/05 13:08:12;;;;;;;17.75;3.63;;;;;;;;;;5085722;28;20028;-77
2024/02/05 13:10:41;;;;;;;12.55;3.17;;;;;;;;;;5082651;28;20028;-77
2024/02/05 13:13:07;;;;;;;16.48;3.20;;;;;;;;;;5086924;28;20024;-77
2024/02/05 13:15:32;;;;;;;21.48;4.30;;;;;;;;;;5088833;28;20034;-77
2024/02/05 13:17:59;;;;;;;15.93;3.40;;;;;;;;;;5080660;28;20042;-77
2024/02/05 13:20:24;;;;;;;12.35;3.10;;;;;;;;;;5075844;28;20036;-77
2024/02/05 13:22:49;;;;;;;14.83;3.10;;;;;;;;;;5077486;28;20028;-77
2024/02/05 13:25:14;;;;;;;11.68;3.35;;;;;;;;;;5075820;28;20361;-77
2024/02/05 13:27:40;;;;;;;15.57;4.13;;;;;;;;;;5086943;28;20467;-77
2024/02/05 13:30:06;;;;;;;17.95;4.38;;;;;;;;;;5079692;28;20259;-77
2024/02/05 13:32:31;;;;;;;16.88;3.92;;;;;;;;;;5083412;28;20110;-77
2024/02/05 13:34:56;;;;;;;17.60;4.07;;;;;;;;;;5083556;28;20056;-77
2024/02/05 13:37:21;;;;;;;13.20;3.60;;;;;;;;;;5083505;28;20358;-76
2024/02/05 13:39:46;;;;;;;11.37;3.17;;;;;;;;;;5084298;28;20408;-77
2024/02/05 13:42:11;;;;;;;17.20;4.63;;;;;;;;;;5088244;28;20347;-77
2024/02/05 13:44:37;;;;;;;15.50;3.45;;;;;;;;;;5083125;28;20277;-77
2024/02/05 13:47:03;;;;;;;17.50;4.10;;;;;;;;;;5076286;28;20020;-77
2024/02/05 13:49:28;;;;;;;15.73;4.15;;;;;;;;;;5079495;28;20485;-77
2024/02/05 13:51:54;;;;;;;12.35;2.83;;;;;;;;;;5083473;28;20024;-77
2024/02/05 13:54:19;;;;;;;13.68;2.90;;;;;;;;;;5090091;28;20089;-77
2024/02/05 13:56:44;;;;;;;23.17;3.83;;;;;;;;;;5087619;28;20032;-77
2024/02/05 13:59:10;;;;;;;14.83;3.47;;;;;;;;;;5087323;28;20024;-77
2024/02/05 14:01:35;;;;;;;12.07;2.53;;;;;;;;;;5087696;28;20658;-77
2024/02/05 14:04:00;;;;;;;16.63;3.35;;;;;;;;;;5073604;28;20274;-77
2024/02/05 14:06:26;;;;;;;17.83;3.85;;;;;;;;;;5081116;28;20128;-77
2024/02/05 14:08:51;;;;;;;16.08;3.20;;;;;;;;;;5087758;28;20047;-77
2024/02/05 14:11:16;;;;;;;15.27;2.85;;;;;;;;;;5088957;28;20040;-77
2024/02/05 14:13:42;;;;;;;14.40;3.50;;;;;;;;;;5086339;28;20081;-77
2024/02/05 14:16:07;;;;;;;9.32;3.30;;;;;;;;;;5083738;28;20049;-77
2024/02/05 14:18:32;;;;;;;11.05;3.03;;;;;;;;;;5081554;28;20408;-77
2024/02/05 14:20:58;;;;;;;17.90;2.95;;;;;;;;;;5085620;28;20036;-77
2024/02/05 14:23:23;;;;;;;11.97;3.00;;;;;;;;;;5088508;28;20039;-77
2024/02/05 14:25:48;;;;;;;14.43;3.40;;;;;;;;;;5085917;28;20349;-77
2024/02/05 14:28:13;;;;;;;15.60;2.83;;;;;;;;;;5086140;28;20399;-77